createdAt,value
2019-03-05T00:01:54.789Z,1.97
2019-03-05T00:04:24.540Z,2.40
2019-03-05T00:06:53.579Z,1.60
2019-03-05T00:09:23.690Z,2.17
2019-03-05T00:11:53.569Z,1.80
2019-03-05T00:14:26.040Z,2.10
2019-03-05T00:16:55.172Z,1.83
2019-03-05T00:19:24.895Z,1.80
2019-03-05T00:21:54.640Z,2.30
2019-03-05T00:25:04.269Z,1.53
2019-03-05T00:28:04.012Z,2.17
2019-03-05T00:30:42.903Z,2.23
2019-03-05T00:33:19.864Z,2.20
2019-03-05T00:36:10.438Z,1.80
2019-03-05T00:38:46.053Z,1.47
2019-03-05T00:41:47.590Z,1.93
2019-03-05T00:44:53.825Z,1.80
2019-03-05T00:48:02.536Z,1.80
2019-03-05T00:51:24.941Z,1.97
2019-03-05T00:54:28.392Z,1.87
2019-03-05T00:57:30.693Z,1.47
2019-03-05T01:00:02.199Z,1.40
2019-03-05T01:03:13.189Z,1.60
2019-03-05T01:06:06.964Z,1.60
2019-03-05T01:08:36.700Z,1.67
2019-03-05T01:11:06.385Z,1.70
2019-03-05T01:13:36.183Z,1.60
2019-03-05T01:16:06.431Z,1.77
2019-03-05T01:18:36.129Z,1.70
2019-03-05T01:21:05.802Z,1.30
2019-03-05T01:23:35.555Z,1.67
2019-03-05T01:26:05.622Z,1.97
2019-03-05T01:28:35.613Z,1.23
2019-03-05T01:31:12.395Z,1.90
2019-03-05T01:34:13.072Z,2.00
2019-03-05T01:36:45.923Z,1.60
2019-03-05T01:39:49.535Z,1.97
2019-03-05T01:42:19.332Z,1.87
2019-03-05T01:44:49.027Z,1.73
2019-03-05T01:47:18.801Z,1.80
2019-03-05T01:49:48.465Z,1.90
2019-03-05T01:52:18.200Z,1.77
2019-03-05T01:54:47.915Z,1.43
2019-03-05T01:57:17.649Z,1.80
2019-03-05T01:59:47.362Z,2.10
2019-03-05T02:02:17.246Z,2.10
2019-03-05T02:04:46.972Z,1.80
2019-03-05T02:07:17.118Z,2.67
2019-03-05T02:09:46.897Z,2.30
2019-03-05T02:12:16.578Z,2.30
2019-03-05T02:14:46.259Z,2.50
2019-03-05T02:17:15.968Z,2.50
2019-03-05T02:19:49.826Z,2.03
2019-03-05T02:22:34.672Z,1.93
2019-03-05T02:25:11.090Z,2.20
2019-03-05T02:28:03.126Z,2.87
2019-03-05T02:30:56.626Z,3.03
2019-03-05T02:33:42.928Z,2.40
2019-03-05T02:36:28.665Z,2.23
2019-03-05T02:39:50.379Z,2.73
2019-03-05T02:42:36.389Z,3.00
2019-03-05T02:45:31.727Z,2.77
2019-03-05T02:48:49.861Z,2.47
2019-03-05T02:52:04.746Z,2.77
2019-03-05T02:55:02.363Z,2.90
2019-03-05T02:57:30.353Z,2.43
2019-03-05T03:00:00.002Z,2.60
2019-03-05T03:02:39.323Z,2.43
2019-03-05T03:05:28.722Z,2.80
2019-03-05T03:07:58.440Z,2.77
2019-03-05T03:10:28.104Z,3.20
2019-03-05T03:12:57.863Z,3.40
2019-03-05T03:15:27.527Z,2.50
2019-03-05T03:17:57.535Z,3.00
2019-03-05T03:20:27.353Z,3.30
2019-03-05T03:22:57.090Z,2.70
2019-03-05T03:25:26.776Z,3.27
2019-03-05T03:27:56.512Z,3.10
2019-03-05T03:30:27.963Z,2.40
2019-03-05T03:32:57.642Z,2.60
2019-03-05T03:35:27.819Z,3.10
2019-03-05T03:37:57.515Z,3.33
2019-03-05T03:40:27.279Z,2.90
2019-03-05T03:42:57.076Z,2.90
2019-03-05T03:45:27.649Z,2.50
2019-03-05T03:47:57.415Z,2.27
2019-03-05T03:50:27.208Z,3.20
2019-03-05T03:52:56.968Z,2.90
2019-03-05T03:55:27.012Z,3.20
2019-03-05T03:57:56.721Z,2.53
2019-03-05T04:00:25.809Z,2.87
2019-03-05T04:02:57.035Z,3.20
2019-03-05T04:05:26.145Z,3.47
2019-03-05T04:07:55.808Z,2.77
2019-03-05T04:10:25.668Z,2.73
2019-03-05T04:12:55.380Z,3.00
2019-03-05T04:15:25.158Z,3.00
2019-03-05T04:17:54.898Z,3.07
2019-03-05T04:20:35.698Z,3.30
2019-03-05T04:23:05.378Z,3.00
2019-03-05T04:25:35.063Z,3.00
2019-03-05T04:28:04.933Z,3.30
2019-03-05T04:30:33.925Z,3.23
2019-03-05T04:33:03.916Z,2.30
2019-03-05T04:35:33.012Z,3.77
2019-03-05T04:38:02.758Z,3.97
2019-03-05T04:40:32.442Z,3.33
2019-03-05T04:43:02.183Z,4.27
2019-03-05T04:45:44.466Z,3.70
2019-03-05T04:48:14.264Z,2.87
2019-03-05T04:50:58.789Z,3.20
2019-03-05T04:53:28.643Z,3.80
2019-03-05T04:55:58.385Z,3.40
2019-03-05T04:58:28.082Z,3.60
2019-03-05T05:00:57.870Z,3.10
2019-03-05T05:03:27.565Z,3.33
2019-03-05T05:05:57.276Z,4.00
2019-03-05T05:08:26.954Z,4.17
2019-03-05T05:10:56.766Z,4.20
2019-03-05T05:13:26.462Z,4.00
2019-03-05T05:15:56.182Z,3.90
2019-03-05T05:18:25.924Z,3.90
2019-03-05T05:20:55.595Z,3.87
2019-03-05T05:23:25.337Z,4.47
2019-03-05T05:25:55.093Z,4.70
2019-03-05T05:28:24.771Z,4.10
2019-03-05T05:30:54.458Z,4.33
2019-03-05T05:33:24.256Z,4.27
2019-03-05T05:35:54.063Z,4.50
2019-03-05T05:38:23.104Z,4.57
2019-03-05T05:40:52.774Z,4.57
2019-03-05T05:43:27.956Z,4.23
2019-03-05T05:45:57.673Z,4.50
2019-03-05T05:48:27.457Z,4.80
2019-03-05T05:50:57.156Z,4.90
2019-03-05T05:53:26.869Z,4.27
2019-03-05T05:55:56.679Z,4.57
2019-03-05T05:58:26.576Z,3.63
2019-03-05T06:00:57.860Z,4.07
2019-03-05T06:03:27.588Z,3.50
2019-03-05T06:05:57.329Z,3.53
2019-03-05T06:08:26.378Z,4.60
2019-03-05T06:10:56.162Z,4.00
2019-03-05T06:13:25.919Z,3.67
2019-03-05T06:15:55.694Z,2.97
2019-03-05T06:18:25.436Z,3.83
2019-03-05T06:20:55.291Z,3.90
2019-03-05T06:23:25.062Z,4.07
2019-03-05T06:25:54.786Z,3.60
2019-03-05T06:28:24.553Z,3.80
2019-03-05T06:30:54.246Z,3.23
2019-03-05T06:33:26.230Z,3.57
2019-03-05T06:35:56.024Z,3.30
2019-03-05T06:38:25.887Z,3.43
2019-03-05T06:40:55.602Z,3.40
2019-03-05T06:43:25.388Z,4.00
2019-03-05T06:45:55.101Z,3.23
2019-03-05T06:48:24.472Z,3.93
2019-03-05T06:50:54.162Z,3.70
2019-03-05T06:53:23.901Z,2.80
2019-03-05T06:55:53.649Z,3.23
2019-03-05T06:58:23.553Z,2.87
2019-03-05T07:00:53.333Z,2.97
2019-03-05T07:03:23.090Z,3.63
2019-03-05T07:06:29.679Z,3.00
2019-03-05T07:09:13.082Z,2.80
2019-03-05T07:12:07.293Z,2.50
2019-03-05T07:15:09.320Z,3.63
2019-03-05T07:17:40.331Z,3.03
2019-03-05T07:20:46.291Z,2.60
2019-03-05T07:23:43.182Z,2.57
2019-03-05T07:26:13.119Z,2.63
2019-03-05T07:28:42.818Z,3.20
2019-03-05T07:31:12.667Z,2.50
2019-03-05T07:33:42.452Z,2.73
2019-03-05T07:36:12.117Z,3.00
2019-03-05T07:38:41.862Z,3.23
2019-03-05T07:41:11.598Z,3.20
2019-03-05T07:43:41.347Z,1.90
2019-03-05T07:46:11.044Z,2.83
2019-03-05T07:48:40.875Z,3.07
2019-03-05T07:51:10.561Z,3.10
2019-03-05T07:53:40.276Z,3.33
2019-03-05T07:56:09.413Z,3.10
2019-03-05T07:58:39.191Z,3.17
2019-03-05T08:01:08.950Z,3.07
2019-03-05T08:03:38.659Z,3.23
2019-03-05T08:06:08.494Z,3.07
2019-03-05T08:09:14.723Z,3.37
2019-03-05T08:11:44.763Z,3.27
2019-03-05T08:15:09.355Z,3.00
2019-03-05T08:17:39.081Z,3.33
2019-03-05T08:20:10.351Z,2.60
2019-03-05T08:22:40.229Z,2.33
2019-03-05T08:25:10.834Z,3.43
2019-03-05T08:27:40.636Z,3.50
2019-03-05T08:30:14.531Z,2.60
2019-03-05T08:32:44.582Z,3.27
2019-03-05T08:35:15.153Z,2.23
2019-03-05T08:37:45.368Z,3.13
2019-03-05T08:40:21.182Z,3.37
2019-03-05T08:42:50.980Z,3.23
2019-03-05T08:45:28.991Z,3.00
2019-03-05T08:47:52.204Z,2.87
2019-03-05T08:50:21.942Z,3.30
2019-03-05T08:52:51.660Z,3.03
2019-03-05T08:55:21.365Z,2.50
2019-03-05T08:57:51.144Z,2.90
2019-03-05T09:00:21.046Z,3.33
2019-03-05T09:02:52.000Z,2.77
2019-03-05T09:05:22.092Z,2.20
2019-03-05T09:07:51.453Z,2.77
2019-03-05T09:10:25.330Z,2.70
2019-03-05T09:12:55.173Z,2.30
2019-03-05T09:15:24.963Z,1.90
2019-03-05T09:17:58.251Z,2.70
2019-03-05T09:20:28.073Z,2.20
2019-03-05T09:23:01.529Z,2.30
2019-03-05T09:26:01.976Z,1.57
2019-03-05T09:28:36.004Z,2.57
2019-03-05T09:31:10.451Z,2.83
2019-03-05T09:33:41.299Z,2.23
2019-03-05T09:36:11.007Z,2.43
2019-03-05T09:38:40.154Z,2.80
2019-03-05T09:41:10.647Z,2.50
2019-03-05T09:43:39.804Z,2.37
2019-03-05T09:46:09.250Z,3.97
2019-03-05T09:48:41.293Z,2.83
2019-03-05T09:51:11.102Z,3.10
2019-03-05T09:53:42.425Z,2.03
2019-03-05T09:56:14.112Z,2.70
2019-03-05T09:58:48.115Z,3.47
2019-03-05T10:01:18.536Z,3.00
2019-03-05T10:03:49.798Z,2.83
2019-03-05T10:06:20.004Z,2.63
2019-03-05T10:08:52.159Z,2.17
2019-03-05T10:11:21.714Z,3.10
2019-03-05T10:13:51.611Z,2.30
2019-03-05T10:16:21.871Z,3.00
2019-03-05T10:18:54.254Z,2.97
2019-03-05T10:21:24.216Z,2.73
2019-03-05T10:23:54.158Z,3.10
2019-03-05T10:26:24.032Z,3.07
2019-03-05T10:28:53.855Z,3.00
2019-03-05T10:31:24.815Z,3.07
2019-03-05T10:33:54.956Z,2.50
2019-03-05T10:36:25.024Z,2.33
2019-03-05T10:38:57.863Z,3.20
2019-03-05T10:41:30.428Z,2.50
2019-03-05T10:44:00.281Z,2.70
2019-03-05T10:46:30.277Z,3.10
2019-03-05T10:49:00.245Z,3.27
2019-03-05T10:51:30.271Z,2.00
2019-03-05T10:54:02.102Z,3.00
2019-03-05T10:56:31.684Z,2.87
2019-03-05T10:59:05.472Z,2.30
2019-03-05T11:01:35.313Z,3.33
2019-03-05T11:04:05.236Z,3.43
2019-03-05T11:06:35.118Z,1.87
2019-03-05T11:09:06.122Z,2.97
2019-03-05T11:11:36.111Z,2.57
2019-03-05T11:14:09.840Z,2.97
2019-03-05T11:16:41.245Z,3.20
2019-03-05T11:19:11.318Z,3.20
2019-03-05T11:21:43.655Z,2.63
2019-03-05T11:24:28.437Z,2.87
2019-03-05T11:26:58.820Z,3.23
2019-03-05T11:29:29.463Z,2.17
2019-03-05T11:31:59.324Z,2.67
2019-03-05T11:34:38.313Z,2.50
2019-03-05T11:37:09.633Z,3.20
2019-03-05T11:39:39.400Z,2.20
2019-03-05T11:42:09.453Z,2.97
2019-03-05T11:44:38.489Z,2.93
2019-03-05T11:47:08.303Z,2.70
2019-03-05T11:49:38.683Z,3.10
2019-03-05T11:52:08.480Z,2.47
2019-03-05T11:54:38.952Z,3.10
2019-03-05T11:57:08.040Z,3.20
2019-03-05T11:59:38.332Z,2.90
2019-03-05T12:02:09.943Z,3.57
2019-03-05T12:04:42.266Z,3.53
2019-03-05T12:07:12.115Z,2.87
2019-03-05T12:09:42.941Z,2.93
2019-03-05T12:12:14.476Z,3.03
2019-03-05T12:14:44.269Z,2.97
2019-03-05T12:17:14.825Z,2.53
2019-03-05T12:19:45.029Z,2.87
2019-03-05T12:22:14.807Z,2.40
2019-03-05T12:24:51.479Z,2.67
2019-03-05T12:27:20.809Z,2.27
2019-03-05T12:29:50.709Z,2.70
2019-03-05T12:32:20.758Z,2.53
2019-03-05T12:34:53.946Z,2.10
2019-03-05T12:37:33.755Z,2.03
2019-03-05T12:40:03.799Z,1.80
2019-03-05T12:42:35.675Z,1.53
2019-03-05T12:45:07.352Z,1.00
2019-03-05T12:47:41.849Z,1.70
2019-03-05T12:50:19.428Z,1.53
2019-03-05T12:52:49.815Z,1.70
2019-03-05T12:55:20.546Z,2.27
2019-03-05T12:57:50.908Z,1.73
2019-03-05T13:00:22.543Z,1.60
2019-03-05T13:02:53.941Z,2.13
2019-03-05T13:05:27.531Z,2.20
2019-03-05T13:07:57.762Z,1.93
2019-03-05T13:10:34.931Z,2.37
2019-03-05T13:13:02.543Z,2.60
2019-03-05T13:15:33.513Z,2.43
2019-03-05T13:18:03.838Z,2.00
2019-03-05T13:20:36.076Z,1.67
2019-03-05T13:23:09.546Z,2.30
2019-03-05T13:25:40.318Z,1.73
2019-03-05T13:28:10.633Z,1.87
2019-03-05T13:30:44.889Z,2.00
2019-03-05T13:33:14.734Z,2.10
2019-03-05T13:35:46.045Z,1.67
2019-03-05T13:38:15.257Z,1.70
2019-03-05T13:40:48.699Z,2.00
2019-03-05T13:43:21.727Z,2.03
2019-03-05T13:45:53.230Z,1.73
2019-03-05T13:49:14.478Z,2.07
2019-03-05T13:52:27.587Z,1.90
2019-03-05T13:55:14.773Z,1.23
2019-03-05T13:58:16.801Z,1.80
2019-03-05T14:00:46.614Z,1.60
2019-03-05T14:03:37.704Z,1.30
2019-03-05T14:06:35.821Z,2.07
2019-03-05T14:09:14.215Z,2.10
2019-03-05T14:11:46.281Z,1.97
2019-03-05T14:14:28.248Z,1.93
2019-03-05T14:17:30.618Z,2.47
2019-03-05T14:20:00.434Z,2.17
2019-03-05T14:22:31.487Z,1.97
2019-03-05T14:25:06.067Z,1.53
2019-03-05T14:27:36.736Z,1.60
2019-03-05T14:30:08.940Z,1.80
2019-03-05T14:32:38.788Z,1.73
2019-03-05T14:35:23.127Z,2.10
2019-03-05T14:37:53.263Z,2.27
2019-03-05T14:40:27.469Z,1.80
2019-03-05T14:43:06.939Z,2.30
2019-03-05T14:45:38.651Z,2.00
2019-03-05T14:48:11.804Z,2.10
2019-03-05T14:50:58.284Z,1.43
2019-03-05T14:53:23.789Z,2.00
2019-03-05T14:55:56.800Z,1.73
2019-03-05T14:58:41.760Z,2.90
2019-03-05T15:01:13.794Z,2.17
2019-03-05T15:03:43.780Z,2.40
2019-03-05T15:06:18.519Z,1.50
2019-03-05T15:08:48.456Z,1.37
2019-03-05T15:11:25.400Z,1.40
2019-03-05T15:13:56.842Z,1.90
2019-03-05T15:16:38.031Z,1.33
2019-03-05T15:19:07.511Z,2.10
2019-03-05T15:21:36.902Z,2.20
2019-03-05T15:24:09.365Z,1.57
2019-03-05T15:26:39.516Z,2.03
2019-03-05T15:29:10.070Z,2.30
2019-03-05T15:31:40.345Z,1.83
2019-03-05T15:34:11.735Z,2.20
2019-03-05T15:36:47.121Z,2.00
2019-03-05T15:39:30.630Z,2.20
2019-03-05T15:42:03.160Z,1.33
2019-03-05T15:44:35.226Z,1.77
2019-03-05T15:47:05.348Z,2.23
2019-03-05T15:49:35.409Z,1.53
2019-03-05T15:52:08.122Z,1.77
2019-03-05T15:54:41.152Z,2.27
2019-03-05T15:57:10.414Z,1.80
2019-03-05T15:59:43.697Z,1.87
2019-03-05T16:02:17.981Z,2.70
2019-03-05T16:04:47.891Z,1.87
2019-03-05T16:07:18.421Z,2.00
2019-03-05T16:09:50.901Z,1.90
2019-03-05T16:12:25.141Z,1.57
2019-03-05T16:18:47.907Z,1.77
2019-03-05T16:21:22.345Z,1.60
2019-03-05T16:24:02.841Z,1.60
2019-03-05T16:27:46.248Z,2.00
2019-03-05T16:29:57.542Z,1.90
2019-03-05T16:32:36.544Z,1.53
2019-03-05T16:35:34.987Z,1.50
2019-03-05T16:42:01.860Z,1.63
2019-03-05T16:45:42.927Z,2.23
2019-03-05T16:48:27.896Z,1.40
2019-03-05T16:51:38.984Z,1.23
2019-03-05T16:54:55.988Z,3.33
2019-03-05T16:58:02.380Z,2.40
2019-03-05T17:05:11.585Z,2.17
2019-03-05T17:08:42.336Z,3.30
2019-03-05T17:11:31.596Z,2.03
2019-03-05T17:38:54.066Z,2.30
2019-03-05T17:41:20.974Z,2.17
2019-03-05T17:44:04.003Z,2.33
2019-03-05T17:46:35.542Z,2.60
2019-03-05T17:49:11.929Z,2.63
2019-03-05T17:51:46.719Z,2.60
2019-03-05T17:54:19.755Z,2.23
2019-03-05T17:56:59.635Z,2.83
2019-03-05T17:59:31.321Z,2.67
2019-03-05T18:02:12.113Z,2.50
2019-03-05T18:04:47.608Z,2.60
2019-03-05T18:07:29.359Z,1.90
2019-03-05T18:10:07.969Z,2.57
2019-03-05T18:12:42.748Z,2.53
2019-03-05T18:15:19.041Z,2.90
2019-03-05T18:18:05.374Z,2.93
2019-03-05T18:20:44.487Z,2.60
2019-03-05T18:26:28.743Z,2.10
2019-03-05T18:29:24.979Z,2.40
2019-03-05T18:32:02.391Z,2.33
2019-03-05T18:34:36.610Z,3.50
2019-03-05T18:37:19.272Z,3.23
2019-03-05T18:40:08.223Z,3.03
2019-03-05T18:42:54.473Z,3.13
2019-03-05T18:46:34.711Z,3.30
2019-03-05T18:49:23.165Z,3.13
2019-03-05T18:52:01.671Z,2.63
2019-03-05T18:54:49.822Z,2.20
2019-03-05T18:57:37.414Z,2.60
2019-03-05T19:00:35.883Z,3.30
2019-03-05T19:03:13.332Z,3.63
2019-03-05T19:05:46.348Z,3.83
2019-03-05T19:08:33.775Z,4.27
2019-03-05T19:11:04.962Z,4.20
2019-03-05T19:13:46.066Z,4.00
2019-03-05T19:16:20.446Z,4.93
2019-03-05T19:19:04.638Z,4.77
2019-03-05T19:21:40.416Z,4.70
2019-03-05T19:24:16.028Z,4.73
2019-03-05T19:26:57.390Z,5.27
2019-03-05T19:29:38.174Z,5.20
2019-03-05T19:32:08.065Z,4.33
2019-03-05T19:34:43.312Z,4.70
2019-03-05T19:37:16.145Z,4.47
2019-03-05T19:39:55.271Z,4.87
2019-03-05T19:42:25.876Z,5.30
2019-03-05T19:44:57.270Z,4.67
2019-03-05T19:47:31.242Z,4.83
2019-03-05T19:50:05.466Z,5.30
2019-03-05T19:54:09.568Z,4.67
2019-03-05T19:55:41.130Z,5.10
2019-03-05T20:01:07.898Z,4.90
2019-03-05T20:03:51.232Z,5.17
2019-03-05T20:06:35.112Z,5.23
2019-03-05T20:09:09.299Z,4.73
2019-03-05T20:11:49.740Z,4.00
2019-03-05T20:14:26.400Z,5.27
2019-03-05T20:17:22.339Z,5.30
2019-03-05T20:20:09.572Z,5.20
2019-03-05T20:22:50.459Z,5.00
2019-03-05T20:25:31.923Z,5.40
2019-03-05T20:28:12.707Z,5.03
2019-03-05T20:31:06.700Z,4.77
2019-03-05T20:33:44.440Z,5.00
2019-03-05T20:36:24.106Z,4.57
2019-03-05T20:38:56.216Z,4.80
2019-03-05T20:41:54.523Z,4.53
2019-03-05T20:44:33.073Z,5.00
2019-03-05T20:47:19.377Z,5.00
2019-03-05T20:50:12.662Z,4.90
2019-03-05T20:53:09.587Z,4.13
2019-03-05T20:55:33.211Z,6.07
2019-03-05T20:58:18.585Z,3.73
2019-03-05T21:00:53.187Z,3.63
2019-03-05T21:03:27.833Z,3.10
2019-03-05T21:06:04.312Z,2.40
2019-03-05T21:08:35.850Z,2.30
2019-03-05T21:11:07.605Z,2.57
2019-03-05T21:13:50.647Z,1.40
2019-03-05T21:16:28.135Z,1.63
2019-03-05T21:19:17.603Z,1.40
2019-03-05T21:21:52.855Z,2.27
2019-03-05T21:24:32.638Z,2.00
2019-03-05T21:51:42.413Z,2.00
2019-03-05T22:06:47.407Z,3.83
2019-03-05T23:19:53.682Z,4.10
